< < Back
Terminal Aerodrome Forecast


Current Version              Previous Versions:   1  2  3  4  5  6  7  8  9  

Terminal Aerodrome Forecast

584
FTUS44 KMOB 311100
TAFMOB
TAF
KMOB 311120Z 3112/0112 35003KT P6SM FEW060 SCT250
     FM311600 03004KT P6SM BKN120
     FM010300 VRB02KT P6SM BKN250=

Latest METAR

821
SAUS80 KWBC 312300
MTRMOB
METAR KMOB 312256Z 04008KT 10SM FEW150 OVC250 29/17 A3000 RMK AO2 SLP155
T02940167


USA.gov is the U.S. government's official web portal to all federal, state and local government web resources and services.